createdAt,value
2017-12-06T00:02:00.475Z,16.47
2017-12-06T00:04:27.911Z,14.40
2017-12-06T00:06:56.095Z,15.83
2017-12-06T00:09:24.332Z,13.67
2017-12-06T00:11:51.744Z,14.70
2017-12-06T00:14:24.917Z,12.97
2017-12-06T00:16:53.107Z,12.43
2017-12-06T00:19:20.540Z,13.67
2017-12-06T00:21:48.746Z,13.23
2017-12-06T00:24:16.199Z,14.30
2017-12-06T00:26:43.625Z,12.43
2017-12-06T00:29:11.051Z,11.97
2017-12-06T00:31:38.494Z,12.23
2017-12-06T00:34:05.923Z,12.33
2017-12-06T00:36:33.368Z,12.40
2017-12-06T00:39:01.560Z,12.53
2017-12-06T00:41:28.991Z,12.03
2017-12-06T00:43:57.188Z,13.40
2017-12-06T00:46:24.619Z,12.73
2017-12-06T00:48:53.637Z,11.23
2017-12-06T00:51:21.076Z,13.70
2017-12-06T00:53:49.290Z,12.67
2017-12-06T00:56:16.733Z,13.50
2017-12-06T00:58:44.158Z,11.87
2017-12-06T01:01:12.363Z,11.53
2017-12-06T01:03:39.800Z,11.87
2017-12-06T01:06:07.995Z,12.03
2017-12-06T01:08:35.416Z,12.50
2017-12-06T01:11:02.859Z,11.47
2017-12-06T01:13:30.297Z,11.97
2017-12-06T01:15:57.719Z,12.40
2017-12-06T01:18:25.149Z,11.10
2017-12-06T01:20:53.346Z,11.67
2017-12-06T01:23:20.780Z,12.13
2017-12-06T01:25:48.978Z,12.13
2017-12-06T01:28:16.421Z,13.40
2017-12-06T01:30:44.607Z,13.10
2017-12-06T01:33:12.059Z,12.47
2017-12-06T01:35:40.255Z,12.23
2017-12-06T01:38:07.689Z,13.03
2017-12-06T01:40:35.939Z,12.37
2017-12-06T01:43:03.367Z,10.57
2017-12-06T01:45:30.808Z,12.20
2017-12-06T01:47:58.320Z,10.57
2017-12-06T01:50:25.761Z,11.53
2017-12-06T01:52:53.188Z,12.13
2017-12-06T01:55:20.619Z,11.40
2017-12-06T01:57:48.056Z,11.13
2017-12-06T02:00:16.244Z,11.20
2017-12-06T02:02:43.672Z,11.40
2017-12-06T02:05:11.113Z,12.10
2017-12-06T02:07:38.550Z,11.30
2017-12-06T02:10:05.995Z,11.07
2017-12-06T02:12:33.430Z,11.53
2017-12-06T02:15:01.627Z,12.70
2017-12-06T02:17:29.050Z,12.40
2017-12-06T02:19:57.264Z,12.87
2017-12-06T02:22:24.697Z,13.40
2017-12-06T02:24:52.154Z,14.20
2017-12-06T02:27:19.591Z,10.40
2017-12-06T02:29:47.788Z,12.10
2017-12-06T02:32:15.219Z,14.30
2017-12-06T02:34:43.416Z,13.23
2017-12-06T02:37:10.851Z,14.40
2017-12-06T02:39:50.992Z,14.53
2017-12-06T02:42:30.259Z,13.90
2017-12-06T02:45:09.728Z,13.13
2017-12-06T02:47:37.937Z,15.83
2017-12-06T02:50:09.004Z,14.13
2017-12-06T02:52:36.440Z,13.90
2017-12-06T02:55:03.881Z,15.73
2017-12-06T02:57:31.319Z,14.47
2017-12-06T02:59:58.753Z,14.70
2017-12-06T03:02:26.192Z,15.10
2017-12-06T03:04:54.391Z,15.63
2017-12-06T03:07:21.835Z,15.90
2017-12-06T03:09:49.268Z,14.70
2017-12-06T03:12:17.470Z,15.20
2017-12-06T03:14:44.911Z,15.13
2017-12-06T03:17:13.167Z,14.87
2017-12-06T03:19:40.599Z,16.60
2017-12-06T03:22:08.040Z,16.03
2017-12-06T03:24:35.472Z,15.10
2017-12-06T03:27:02.912Z,14.60
2017-12-06T03:29:31.099Z,15.43
2017-12-06T03:31:58.585Z,17.37
2017-12-06T03:34:26.737Z,16.97
2017-12-06T03:36:54.155Z,17.30
2017-12-06T03:39:21.597Z,16.60
2017-12-06T03:41:49.027Z,17.23
2017-12-06T03:44:16.456Z,17.70
2017-12-06T03:46:43.892Z,16.17
2017-12-06T03:49:12.101Z,15.60
2017-12-06T03:51:39.525Z,17.07
2017-12-06T03:54:07.731Z,16.97
2017-12-06T03:56:35.160Z,15.10
2017-12-06T03:59:03.381Z,15.73
2017-12-06T04:01:30.804Z,17.90
2017-12-06T04:03:58.231Z,17.03
2017-12-06T04:06:25.659Z,14.77
2017-12-06T04:08:53.115Z,16.67
2017-12-06T04:11:20.559Z,15.10
2017-12-06T04:13:47.988Z,15.40
2017-12-06T04:16:16.193Z,16.70
2017-12-06T04:18:43.620Z,17.83
2017-12-06T04:21:11.049Z,17.37
2017-12-06T04:23:41.892Z,18.23
2017-12-06T04:26:09.360Z,16.10
2017-12-06T04:28:37.553Z,17.87
2017-12-06T04:31:15.092Z,17.73
2017-12-06T04:33:42.523Z,17.17
2017-12-06T04:36:10.031Z,17.00
2017-12-06T04:38:43.301Z,17.23
2017-12-06T04:41:10.735Z,15.50
2017-12-06T04:43:38.182Z,17.70
2017-12-06T04:46:05.620Z,15.70
2017-12-06T04:48:33.056Z,16.83
2017-12-06T04:51:00.479Z,16.53
2017-12-06T04:53:27.912Z,17.37
2017-12-06T04:55:55.420Z,14.70
2017-12-06T04:58:22.856Z,16.67
2017-12-06T05:00:56.893Z,16.50
2017-12-06T05:03:24.337Z,15.30
2017-12-06T05:05:51.759Z,15.57
2017-12-06T05:08:19.215Z,16.33
2017-12-06T05:10:46.640Z,15.70
2017-12-06T05:13:14.076Z,15.77
2017-12-06T05:15:47.955Z,14.43
2017-12-06T05:18:15.402Z,15.20
2017-12-06T05:20:42.828Z,18.10
2017-12-06T05:23:10.260Z,15.70
2017-12-06T05:25:38.447Z,15.40
2017-12-06T05:28:06.653Z,16.97
2017-12-06T05:30:34.076Z,17.73
2017-12-06T05:33:02.288Z,17.43
2017-12-06T05:35:29.717Z,16.53
2017-12-06T05:37:58.076Z,17.37
2017-12-06T05:40:25.863Z,17.13
2017-12-06T05:42:56.837Z,17.30
2017-12-06T05:45:24.311Z,16.60
2017-12-06T05:47:51.801Z,15.33
2017-12-06T05:50:19.216Z,17.00
2017-12-06T05:52:46.658Z,17.00
2017-12-06T05:55:14.079Z,16.00
2017-12-06T05:57:41.506Z,15.37
2017-12-06T06:00:08.944Z,15.60
2017-12-06T06:02:36.371Z,17.03
2017-12-06T06:05:03.800Z,16.73
2017-12-06T06:07:31.991Z,17.37
2017-12-06T06:09:59.436Z,14.20
2017-12-06T06:12:27.628Z,16.87
2017-12-06T06:14:55.065Z,14.27
2017-12-06T06:17:22.505Z,16.47
2017-12-06T06:19:49.937Z,15.40
2017-12-06T06:22:22.342Z,16.40
2017-12-06T06:24:50.599Z,15.50
2017-12-06T06:27:19.118Z,16.93
2017-12-06T06:29:47.304Z,16.50
2017-12-06T06:32:14.740Z,16.80
2017-12-06T06:34:42.937Z,16.47
2017-12-06T06:37:10.372Z,14.87
2017-12-06T06:39:38.567Z,14.83
2017-12-06T06:42:06.007Z,17.23
2017-12-06T06:44:34.212Z,14.93
2017-12-06T06:47:01.654Z,17.73
2017-12-06T06:49:29.078Z,17.80
2017-12-06T06:51:56.513Z,16.87
2017-12-06T06:54:23.952Z,17.37
2017-12-06T06:56:51.391Z,17.07
2017-12-06T06:59:18.835Z,16.67
2017-12-06T07:01:46.272Z,16.10
2017-12-06T07:04:14.464Z,17.73
2017-12-06T07:06:41.906Z,18.40
2017-12-06T07:09:10.098Z,18.40
2017-12-06T07:11:37.527Z,16.80
2017-12-06T07:14:04.964Z,18.13
2017-12-06T07:16:32.396Z,17.70
2017-12-06T07:18:59.828Z,17.23
2017-12-06T07:21:27.256Z,16.30
2017-12-06T07:23:54.690Z,17.33
2017-12-06T07:26:22.128Z,16.60
2017-12-06T07:28:49.555Z,16.87
2017-12-06T07:31:16.988Z,16.00
2017-12-06T07:33:45.187Z,18.23
2017-12-06T07:36:12.617Z,16.43
2017-12-06T07:38:40.050Z,17.07
2017-12-06T07:41:07.477Z,14.70
2017-12-06T07:43:34.916Z,15.13
2017-12-06T07:46:02.372Z,16.37
2017-12-06T07:48:29.804Z,13.17
2017-12-06T07:50:57.237Z,16.20
2017-12-06T07:53:32.980Z,14.50
2017-12-06T07:56:01.885Z,14.30
2017-12-06T07:58:34.944Z,15.13
2017-12-06T08:01:02.386Z,14.43
2017-12-06T08:03:48.588Z,15.60
2017-12-06T08:06:16.001Z,14.03
2017-12-06T08:08:43.428Z,16.37
2017-12-06T08:11:10.859Z,13.47
2017-12-06T08:13:38.283Z,13.93
2017-12-06T08:16:06.494Z,13.43
2017-12-06T08:18:33.923Z,13.73
2017-12-06T08:21:01.356Z,13.77
2017-12-06T08:23:28.790Z,13.03
2017-12-06T08:25:56.225Z,12.63
2017-12-06T08:28:23.657Z,12.97
2017-12-06T08:30:51.099Z,12.30
2017-12-06T08:33:19.294Z,12.77
2017-12-06T08:35:46.748Z,12.67
2017-12-06T08:38:14.179Z,13.03
2017-12-06T08:40:42.372Z,13.37
2017-12-06T08:43:09.795Z,11.93
2017-12-06T08:45:37.236Z,15.27
2017-12-06T08:48:04.676Z,12.17
2017-12-06T08:50:32.124Z,11.73
2017-12-06T08:53:00.311Z,13.20
2017-12-06T08:55:27.743Z,12.10
2017-12-06T08:57:55.176Z,14.10
2017-12-06T09:00:23.431Z,12.70
2017-12-06T09:02:50.873Z,11.90
2017-12-06T09:05:18.333Z,12.40
2017-12-06T09:07:45.769Z,13.50
2017-12-06T09:10:13.191Z,13.60
2017-12-06T09:12:40.629Z,13.60
2017-12-06T09:15:08.844Z,14.57
2017-12-06T09:17:36.281Z,13.50
2017-12-06T09:20:03.708Z,17.00
2017-12-06T09:22:31.146Z,17.30
2017-12-06T09:24:58.572Z,16.80
2017-12-06T09:27:26.051Z,15.47
2017-12-06T09:29:53.490Z,15.10
2017-12-06T09:32:20.911Z,16.83
2017-12-06T09:34:49.122Z,15.87
2017-12-06T09:37:16.553Z,16.17
2017-12-06T09:39:43.984Z,15.03
2017-12-06T09:42:11.478Z,15.47
2017-12-06T09:44:38.899Z,15.30
2017-12-06T09:47:06.368Z,15.03
2017-12-06T09:49:33.775Z,15.60
2017-12-06T09:52:01.321Z,16.97
2017-12-06T09:54:28.733Z,14.50
2017-12-06T09:56:56.923Z,16.23
2017-12-06T09:59:24.356Z,16.57
2017-12-06T10:01:51.780Z,16.60
2017-12-06T10:04:19.224Z,15.60
2017-12-06T10:06:47.524Z,14.10
2017-12-06T10:09:14.940Z,15.70
2017-12-06T10:11:42.373Z,14.47
2017-12-06T10:14:10.654Z,15.57
2017-12-06T10:16:39.944Z,15.43
2017-12-06T10:19:07.478Z,15.77
2017-12-06T10:21:34.888Z,14.27
2017-12-06T10:24:02.312Z,14.23
2017-12-06T10:26:29.751Z,16.90
2017-12-06T10:28:57.247Z,15.30
2017-12-06T10:31:25.528Z,16.60
2017-12-06T10:33:52.959Z,15.03
2017-12-06T10:36:20.449Z,16.43
2017-12-06T10:38:48.670Z,15.70
2017-12-06T10:41:16.206Z,15.87
2017-12-06T10:43:43.710Z,17.60
2017-12-06T10:46:12.090Z,19.70
2017-12-06T10:48:39.519Z,20.43
2017-12-06T10:51:06.948Z,16.83
2017-12-06T10:53:34.387Z,16.57
2017-12-06T10:56:01.838Z,16.50
2017-12-06T10:58:29.270Z,19.20
2017-12-06T11:00:56.696Z,18.00
2017-12-06T11:03:24.133Z,20.07
2017-12-06T11:05:51.551Z,19.70
2017-12-06T11:08:19.751Z,20.07
2017-12-06T11:10:47.179Z,23.37
2017-12-06T11:13:14.645Z,20.57
2017-12-06T11:15:42.832Z,20.37
2017-12-06T11:18:10.263Z,23.33
2017-12-06T11:20:37.691Z,21.90
2017-12-06T11:23:05.129Z,21.47
2017-12-06T11:25:32.561Z,27.10
2017-12-06T11:27:59.988Z,28.00
2017-12-06T11:30:27.424Z,31.30
2017-12-06T11:32:54.859Z,24.07
2017-12-06T11:35:22.291Z,21.30
2017-12-06T11:37:49.772Z,21.60
2017-12-06T11:40:17.284Z,21.77
2017-12-06T11:42:45.495Z,20.83
2017-12-06T11:45:12.939Z,21.33
2017-12-06T11:47:41.115Z,20.67
2017-12-06T11:50:09.363Z,20.10
2017-12-06T11:52:37.567Z,18.50
2017-12-06T11:55:05.018Z,17.73
2017-12-06T11:57:32.452Z,18.47
2017-12-06T12:00:00.027Z,18.40
2017-12-06T12:02:32.488Z,19.77
2017-12-06T12:05:00.691Z,19.67
2017-12-06T12:07:28.124Z,16.57
2017-12-06T12:10:00.595Z,18.10
2017-12-06T12:12:28.029Z,21.10
2017-12-06T12:14:55.461Z,22.33
2017-12-06T12:17:22.915Z,23.57
2017-12-06T12:19:50.349Z,20.57
2017-12-06T12:22:17.803Z,17.30
2017-12-06T12:24:45.263Z,16.67
2017-12-06T12:27:12.700Z,17.17
2017-12-06T12:29:40.196Z,16.30
2017-12-06T12:32:07.626Z,17.37
2017-12-06T12:34:35.874Z,18.10
2017-12-06T12:37:03.285Z,20.00
2017-12-06T12:39:30.768Z,17.23
2017-12-06T12:41:58.206Z,16.57
2017-12-06T12:44:25.652Z,17.97
2017-12-06T12:46:53.128Z,16.40
2017-12-06T12:49:20.575Z,18.23
2017-12-06T12:51:48.004Z,16.80
2017-12-06T12:54:15.656Z,17.77
2017-12-06T12:56:46.276Z,19.30
2017-12-06T12:59:14.477Z,17.57
2017-12-06T13:01:41.914Z,17.93
2017-12-06T13:04:10.171Z,18.60
2017-12-06T13:06:37.603Z,19.73
2017-12-06T13:09:05.030Z,18.80
2017-12-06T13:11:32.460Z,18.77
2017-12-06T13:13:59.894Z,18.73
2017-12-06T13:16:27.325Z,17.67
2017-12-06T13:18:54.774Z,19.30
2017-12-06T13:21:22.204Z,18.47
2017-12-06T13:23:49.643Z,19.17
2017-12-06T13:26:17.843Z,18.73
2017-12-06T13:28:45.285Z,18.90
2017-12-06T13:31:13.471Z,20.50
2017-12-06T13:33:40.913Z,20.00
2017-12-06T13:36:09.121Z,19.00
2017-12-06T13:38:36.567Z,18.40
2017-12-06T13:41:04.034Z,17.00
2017-12-06T13:43:31.468Z,16.30
2017-12-06T13:45:58.890Z,17.70
2017-12-06T13:48:26.320Z,17.03
2017-12-06T13:50:53.781Z,17.07
2017-12-06T13:53:21.279Z,15.33
2017-12-06T13:55:49.463Z,15.10
2017-12-06T13:58:17.670Z,16.23
2017-12-06T14:00:45.101Z,16.53
2017-12-06T14:03:14.271Z,15.50
2017-12-06T14:05:41.703Z,18.87
2017-12-06T14:08:09.128Z,16.63
2017-12-06T14:10:36.559Z,15.40
2017-12-06T14:13:04.756Z,18.20
2017-12-06T14:15:32.203Z,16.80
2017-12-06T14:17:59.640Z,14.90
2017-12-06T14:20:27.089Z,16.40
2017-12-06T14:23:02.395Z,16.00
2017-12-06T14:25:34.266Z,16.70
2017-12-06T14:28:01.676Z,15.17
2017-12-06T14:30:29.099Z,16.73
2017-12-06T14:32:56.631Z,15.40
2017-12-06T14:35:24.039Z,16.70
2017-12-06T14:37:52.241Z,16.43
2017-12-06T14:40:19.679Z,14.70
2017-12-06T14:42:47.145Z,16.70
2017-12-06T14:45:18.764Z,16.70
2017-12-06T14:47:57.469Z,15.80
2017-12-06T14:50:25.003Z,13.60
2017-12-06T14:52:52.399Z,14.50
2017-12-06T14:55:19.840Z,14.67
2017-12-06T14:57:47.337Z,14.33
2017-12-06T15:00:15.540Z,15.97
2017-12-06T15:02:42.959Z,14.90
2017-12-06T15:05:19.338Z,16.40
2017-12-06T15:07:47.528Z,16.10
2017-12-06T15:10:14.979Z,16.27
2017-12-06T15:12:42.406Z,16.50
2017-12-06T15:15:09.876Z,16.50
2017-12-06T15:17:37.282Z,15.13
2017-12-06T15:20:04.746Z,14.97
2017-12-06T15:22:33.265Z,17.40
2017-12-06T15:25:01.461Z,16.10
2017-12-06T15:27:29.001Z,15.60
2017-12-06T15:29:57.298Z,16.20
2017-12-06T15:32:24.879Z,18.07
2017-12-06T15:34:52.359Z,15.40
2017-12-06T15:37:20.504Z,16.70
2017-12-06T15:39:47.934Z,17.57
2017-12-06T15:42:18.340Z,17.33
2017-12-06T15:44:45.804Z,17.33
2017-12-06T15:47:14.356Z,17.00
2017-12-06T15:49:45.149Z,18.77
2017-12-06T15:52:19.608Z,18.13
2017-12-06T15:54:47.047Z,17.00
2017-12-06T15:57:17.048Z,18.70
2017-12-06T15:59:44.479Z,19.30
2017-12-06T16:02:12.695Z,20.37
2017-12-06T16:04:41.262Z,19.90
2017-12-06T16:07:08.811Z,21.00
2017-12-06T16:09:36.999Z,20.07
2017-12-06T16:12:04.484Z,18.00
2017-12-06T16:14:40.995Z,19.73
2017-12-06T16:17:08.412Z,19.00
2017-12-06T16:19:35.853Z,16.87
2017-12-06T16:22:03.370Z,16.73
2017-12-06T16:24:31.581Z,17.47
2017-12-06T16:27:01.048Z,20.30
2017-12-06T16:29:29.312Z,19.67
2017-12-06T16:31:56.784Z,16.20
2017-12-06T16:34:24.972Z,15.80
2017-12-06T16:37:05.080Z,17.87
2017-12-06T16:39:32.518Z,21.00
2017-12-06T16:41:59.956Z,18.70
2017-12-06T16:44:27.379Z,17.27
2017-12-06T16:46:55.672Z,17.50
2017-12-06T16:49:23.918Z,17.73
2017-12-06T16:51:51.396Z,17.77
2017-12-06T16:54:21.612Z,21.13
2017-12-06T16:56:49.811Z,17.67
2017-12-06T16:59:17.249Z,17.53
2017-12-06T17:01:45.458Z,18.70
2017-12-06T17:04:12.922Z,18.40
2017-12-06T17:06:40.347Z,18.13
2017-12-06T17:09:08.551Z,17.90
2017-12-06T17:11:35.980Z,17.33
2017-12-06T17:14:04.204Z,19.90
2017-12-06T17:16:33.695Z,19.77
2017-12-06T17:19:01.140Z,17.83
2017-12-06T17:21:28.564Z,17.73
2017-12-06T17:23:56.760Z,18.57
2017-12-06T17:26:24.207Z,17.37
2017-12-06T17:29:03.753Z,17.50
2017-12-06T17:31:43.022Z,19.80
2017-12-06T17:34:13.832Z,18.57
2017-12-06T17:36:46.660Z,21.00
2017-12-06T17:39:14.102Z,17.07
2017-12-06T17:41:41.538Z,18.63
2017-12-06T17:44:08.965Z,19.23
2017-12-06T17:46:38.269Z,17.80
2017-12-06T17:49:06.536Z,19.20
2017-12-06T17:51:33.975Z,19.27
2017-12-06T17:54:01.528Z,19.00
2017-12-06T17:56:30.030Z,19.03
2017-12-06T17:58:57.460Z,20.00
2017-12-06T18:01:26.007Z,20.87
2017-12-06T18:03:53.427Z,18.10
2017-12-06T18:06:21.622Z,21.17
2017-12-06T18:08:56.922Z,20.07
2017-12-06T18:11:24.331Z,21.03
2017-12-06T18:13:51.788Z,21.40
2017-12-06T18:16:19.322Z,23.07
2017-12-06T18:18:47.530Z,20.50
2017-12-06T18:21:14.955Z,18.30
2017-12-06T18:23:43.162Z,18.40
2017-12-06T18:26:10.598Z,18.30
2017-12-06T18:28:38.795Z,19.37
2017-12-06T18:31:07.224Z,23.62
2017-12-06T18:33:34.655Z,19.50
2017-12-06T18:36:02.090Z,19.17
2017-12-06T18:38:29.559Z,18.47
2017-12-06T18:40:57.002Z,17.43
2017-12-06T18:43:24.428Z,18.40
2017-12-06T18:45:52.620Z,18.67
2017-12-06T18:48:20.059Z,19.70
2017-12-06T18:50:48.272Z,21.00
2017-12-06T18:53:15.701Z,18.67
2017-12-06T18:55:43.127Z,18.50
2017-12-06T18:58:10.563Z,19.73
2017-12-06T19:00:38.004Z,21.20
2017-12-06T19:03:06.435Z,19.17
2017-12-06T19:05:34.622Z,19.17
2017-12-06T19:08:02.055Z,21.63
2017-12-06T19:10:29.515Z,21.57
2017-12-06T19:12:56.944Z,21.00
2017-12-06T19:15:24.379Z,19.77
2017-12-06T19:17:56.794Z,22.17
2017-12-06T19:20:24.219Z,19.40
2017-12-06T19:22:51.638Z,22.70
2017-12-06T19:25:19.155Z,22.17
2017-12-06T19:27:46.589Z,20.40
2017-12-06T19:30:14.048Z,21.43
2017-12-06T19:32:41.496Z,19.50
2017-12-06T19:35:08.950Z,20.13
2017-12-06T19:37:36.379Z,19.37
2017-12-06T19:40:04.567Z,19.97
2017-12-06T19:42:32.019Z,21.07
2017-12-06T19:44:59.477Z,20.37
2017-12-06T19:47:26.904Z,19.40
2017-12-06T19:49:54.333Z,19.57
2017-12-06T19:52:21.778Z,20.60
2017-12-06T19:54:49.227Z,35.33
2017-12-06T19:57:18.675Z,27.03
2017-12-06T19:59:50.400Z,23.70
2017-12-06T20:02:17.836Z,22.37
2017-12-06T20:04:45.262Z,20.50
2017-12-06T20:07:13.472Z,19.47
2017-12-06T20:09:41.936Z,22.07
2017-12-06T20:12:09.369Z,23.17
2017-12-06T20:14:38.558Z,19.70
2017-12-06T20:17:05.991Z,18.40
2017-12-06T20:19:33.423Z,19.27
2017-12-06T20:22:04.114Z,19.87
2017-12-06T20:24:36.896Z,18.37
2017-12-06T20:27:04.359Z,20.17
2017-12-06T20:29:32.574Z,21.50
2017-12-06T20:31:59.999Z,20.10
2017-12-06T20:34:27.434Z,21.00
2017-12-06T20:36:57.006Z,22.17
2017-12-06T20:39:24.433Z,22.90
2017-12-06T20:41:51.884Z,22.67
2017-12-06T20:44:19.320Z,22.10
2017-12-06T20:46:47.524Z,23.97
2017-12-06T20:49:14.969Z,20.73
2017-12-06T20:51:42.409Z,21.17
2017-12-06T20:54:10.608Z,19.30
2017-12-06T20:56:38.035Z,24.97
2017-12-06T20:59:05.477Z,21.17
2017-12-06T21:01:32.918Z,19.20
2017-12-06T21:04:00.362Z,19.70
2017-12-06T21:06:27.789Z,19.17
2017-12-06T21:08:55.224Z,18.30
2017-12-06T21:11:23.424Z,18.23
2017-12-06T21:13:50.851Z,19.27
2017-12-06T21:16:19.128Z,18.33
2017-12-06T21:18:46.551Z,18.30
2017-12-06T21:21:13.996Z,19.00
2017-12-06T21:23:41.491Z,18.30
2017-12-06T21:26:08.935Z,18.90
2017-12-06T21:28:36.411Z,20.67
2017-12-06T21:31:04.599Z,17.80
2017-12-06T21:33:32.806Z,18.87
2017-12-06T21:36:00.260Z,19.23
2017-12-06T21:38:29.740Z,20.47
2017-12-06T21:40:57.931Z,18.60
2017-12-06T21:43:25.365Z,20.33
2017-12-06T21:45:52.879Z,18.20
2017-12-06T21:48:20.374Z,21.00
2017-12-06T21:50:48.590Z,19.77
2017-12-06T21:53:16.020Z,21.53
2017-12-06T21:55:44.231Z,19.00
2017-12-06T21:58:11.713Z,20.93
2017-12-06T22:00:39.140Z,20.70
2017-12-06T22:03:06.564Z,20.33
2017-12-06T22:05:34.795Z,19.70
2017-12-06T22:08:02.229Z,19.73
2017-12-06T22:10:29.666Z,21.00
2017-12-06T22:13:00.366Z,19.47
2017-12-06T22:15:27.806Z,19.33
2017-12-06T22:17:55.232Z,18.30
2017-12-06T22:20:22.663Z,20.47
2017-12-06T22:22:50.090Z,19.40
2017-12-06T22:25:17.562Z,21.27
2017-12-06T22:27:45.743Z,19.30
2017-12-06T22:30:13.939Z,20.97
2017-12-06T22:32:41.379Z,17.77
2017-12-06T22:35:09.583Z,20.37
2017-12-06T22:37:37.007Z,19.77
2017-12-06T22:40:05.214Z,21.20
2017-12-06T22:42:32.638Z,20.93
2017-12-06T22:45:12.709Z,19.60
2017-12-06T22:47:40.898Z,20.00
2017-12-06T22:50:08.318Z,18.73
2017-12-06T22:52:35.746Z,19.50
2017-12-06T22:55:03.180Z,20.20
2017-12-06T22:57:30.624Z,19.07
2017-12-06T22:59:58.054Z,20.90
2017-12-06T23:02:26.269Z,21.03
2017-12-06T23:04:53.682Z,19.97
2017-12-06T23:07:21.908Z,21.40
2017-12-06T23:09:49.328Z,20.80
2017-12-06T23:12:16.755Z,20.10
2017-12-06T23:14:44.184Z,22.47
2017-12-06T23:17:11.614Z,19.57
2017-12-06T23:19:39.054Z,21.33
2017-12-06T23:22:06.475Z,21.73
2017-12-06T23:24:33.903Z,20.07
2017-12-06T23:27:01.357Z,18.87
2017-12-06T23:29:28.770Z,22.37
2017-12-06T23:31:56.199Z,19.50
2017-12-06T23:34:23.648Z,21.17
2017-12-06T23:36:51.131Z,18.87
2017-12-06T23:39:19.331Z,20.47
2017-12-06T23:41:46.760Z,19.30
2017-12-06T23:44:14.191Z,19.87
2017-12-06T23:46:41.622Z,18.70
2017-12-06T23:49:09.064Z,19.50
2017-12-06T23:51:36.490Z,19.80
2017-12-06T23:54:03.920Z,20.60
2017-12-06T23:56:31.348Z,21.30
2017-12-06T23:58:58.778Z,19.13
